Airfield :
LOGIN :

Register | Disclaimer

   EN    FR    IT 

 










Legend :    VFR   Marginal VFR   IFR   Intensive IFR   Very Intensive IFR
Visi :
Ceiling :
>= 8 km
>= 3000ft
5 to 8 km
1000 to 3000 ft
1500m to 5 km
500 to 1000 ft
800 to 1500m
200 to 500 ft
< 800m
< 200 ft
Symbols :   Thunderstorms  Fog  Heavy snow  Heavy precipitations  Wind > 20 kt
SIGMETs :     Misc.  Thunderstorms  Icing  Turbulence  Mountain Waves  Volcanic Ashes







- Airport Elevation : 273 ft


EGXT - RAF Wittering Stamford

CURRENT METAR :
  • 251250Z AUTO 17011G22KT 9999 +RA FEW025/// BKN040/// 08/06 Q0997

EXPIRED METARs :
  • 251150Z AUTO 14008KT 9999 SCT050/// SCT130/// 12/09 Q0997 RERA
  • 251050Z AUTO 20014KT 9999 -RA FEW024/// SCT031/// BKN050/// 11/07 Q0997

TAF TAF EGXT
Valid from the 25 at 12:00 until the 25 at 18:00 UTC


251030Z 2512/2518 17014KT 9999 SCT030
PROB30
TEMPO 2512/2517 19016G26KT 4000 SHRA SCT024CB
No reported NOTAMs for that airfield.



MET'MAP, your aeronautical weather chart ! - Copyright ORBIFLY December 2007 - Disclaimer

ORBIFLY MET'MAP TEAM :

Programming & Development : Alexandra Zaïnal
Concept & Development : Baudouin d'Aumeries
Co-Development & Prog : Marc-Olivier Méhu
Technical & hardware support : Manuel Goepfert

Contact : metmap@orbifly.com




SOURCES & CREDITS :

   NOAA